createdAt,value
2023-08-29T00:00:14.103Z,8.10
2023-08-29T00:03:06.765Z,13.60
2023-08-29T00:05:39.973Z,16.00
2023-08-29T00:08:12.334Z,8.80
2023-08-29T00:10:45.008Z,12.30
2023-08-29T00:13:17.276Z,12.70
2023-08-29T00:15:50.063Z,9.40
2023-08-29T00:18:23.075Z,7.90
2023-08-29T00:20:55.845Z,7.40
2023-08-29T00:23:29.146Z,7.20
2023-08-29T00:26:01.552Z,6.80
2023-08-29T00:28:34.007Z,7.10
2023-08-29T00:31:06.485Z,10.70
2023-08-29T00:33:38.830Z,8.50
2023-08-29T00:36:11.305Z,9.90
2023-08-29T00:38:43.989Z,11.50
2023-08-29T00:41:16.697Z,11.20
2023-08-29T00:43:48.962Z,9.50
2023-08-29T00:46:22.044Z,8.80
2023-08-29T00:48:54.696Z,9.00
2023-08-29T00:51:28.080Z,8.30
2023-08-29T00:54:02.231Z,11.80
2023-08-29T00:56:35.192Z,7.80
2023-08-29T00:59:07.520Z,8.80
2023-08-29T01:01:40.956Z,9.50
2023-08-29T01:04:13.310Z,9.30
2023-08-29T01:06:46.012Z,10.70
2023-08-29T01:09:18.988Z,11.20
2023-08-29T01:12:05.405Z,12.10
2023-08-29T01:14:42.912Z,9.50
2023-08-29T01:17:22.178Z,7.90
2023-08-29T01:19:56.371Z,8.50
2023-08-29T01:22:49.011Z,6.50
2023-08-29T01:25:29.188Z,7.20
2023-08-29T01:28:03.217Z,6.90
2023-08-29T01:30:36.851Z,10.10
2023-08-29T01:33:10.648Z,6.80
2023-08-29T01:35:48.752Z,6.40
2023-08-29T01:38:21.232Z,6.30
2023-08-29T01:40:54.039Z,7.30
2023-08-29T01:43:26.448Z,7.30
2023-08-29T01:45:59.091Z,7.10
2023-08-29T01:48:32.918Z,9.80
2023-08-29T01:51:05.687Z,7.40
2023-08-29T01:53:40.422Z,7.80
2023-08-29T01:56:17.944Z,8.00
2023-08-29T01:58:53.080Z,8.30
2023-08-29T02:01:26.066Z,7.90
2023-08-29T02:03:59.098Z,11.00
2023-08-29T02:06:31.795Z,10.10
2023-08-29T02:09:04.742Z,7.90
2023-08-29T02:11:37.161Z,8.20
2023-08-29T02:14:12.085Z,7.00
2023-08-29T02:16:44.783Z,7.60
2023-08-29T02:19:20.825Z,7.60
2023-08-29T02:21:53.545Z,7.30
2023-08-29T02:24:25.871Z,8.10
2023-08-29T02:26:58.245Z,7.40
2023-08-29T02:29:30.593Z,6.60
2023-08-29T02:32:03.950Z,6.50
2023-08-29T02:34:36.391Z,12.10
2023-08-29T02:37:09.313Z,10.90
2023-08-29T02:39:43.092Z,7.10
2023-08-29T02:42:15.882Z,8.30
2023-08-29T02:44:48.260Z,6.20
2023-08-29T02:47:20.789Z,8.00
2023-08-29T02:49:53.776Z,6.40
2023-08-29T02:52:27.808Z,6.90
2023-08-29T02:55:00.218Z,6.20
2023-08-29T02:57:32.914Z,5.80
2023-08-29T03:00:06.647Z,6.00
2023-08-29T03:02:39.129Z,6.00
2023-08-29T03:05:13.524Z,5.50
2023-08-29T03:07:46.200Z,6.00
2023-08-29T03:10:19.489Z,6.50
2023-08-29T03:12:54.344Z,5.70
2023-08-29T03:15:27.351Z,6.00
2023-08-29T03:18:01.466Z,5.90
2023-08-29T03:20:34.822Z,5.60
2023-08-29T03:23:08.006Z,5.40
2023-08-29T03:25:41.351Z,4.90
2023-08-29T03:30:46.582Z,9.90
2023-08-29T03:33:19.025Z,6.70
2023-08-29T03:36:01.264Z,7.80
2023-08-29T03:38:34.722Z,5.40
2023-08-29T03:41:08.623Z,3.80
2023-08-29T03:43:41.302Z,3.10
2023-08-29T03:46:15.144Z,3.40
2023-08-29T03:48:48.162Z,3.50
2023-08-29T04:05:17.293Z,4.90
2023-08-29T04:07:49.650Z,3.80
2023-08-29T04:10:21.886Z,6.60
2023-08-29T04:12:54.323Z,3.90
2023-08-29T04:15:28.254Z,2.90
2023-08-29T04:18:00.688Z,3.50
2023-08-29T04:20:33.372Z,4.10
2023-08-29T04:23:08.198Z,3.90
2023-08-29T04:25:40.467Z,7.60
2023-08-29T04:28:13.356Z,3.20
2023-08-29T04:30:45.545Z,4.00
2023-08-29T04:33:18.171Z,3.40
2023-08-29T04:35:53.571Z,4.30
2023-08-29T04:38:26.039Z,3.20
2023-08-29T04:40:59.576Z,3.40
2023-08-29T04:43:31.835Z,4.90
2023-08-29T04:46:05.495Z,4.40
2023-08-29T04:48:38.188Z,3.30
2023-08-29T04:51:10.556Z,3.10
2023-08-29T04:53:42.673Z,3.30
2023-08-29T04:56:15.878Z,3.60
2023-08-29T04:58:49.032Z,3.50
2023-08-29T05:01:21.246Z,3.60
2023-08-29T05:03:53.879Z,3.60
2023-08-29T05:06:27.185Z,3.40
2023-08-29T05:08:59.674Z,3.00
2023-08-29T05:11:31.888Z,4.00
2023-08-29T05:14:04.328Z,3.90
2023-08-29T05:16:36.900Z,2.80
2023-08-29T05:19:09.456Z,3.10
2023-08-29T05:21:41.955Z,2.70
2023-08-29T05:24:16.450Z,3.60
2023-08-29T05:26:49.935Z,2.60
2023-08-29T05:29:22.398Z,2.50
2023-08-29T05:31:54.538Z,2.20
2023-08-29T05:34:27.286Z,2.30
2023-08-29T05:36:59.786Z,2.30
2023-08-29T05:39:31.898Z,2.10
2023-08-29T05:42:05.185Z,2.10
2023-08-29T05:44:39.451Z,1.90
2023-08-29T05:47:12.292Z,1.90
2023-08-29T05:49:44.600Z,2.10
2023-08-29T05:52:16.709Z,1.80
2023-08-29T05:54:49.093Z,1.90
2023-08-29T05:57:21.670Z,1.80
2023-08-29T05:59:55.070Z,1.80
2023-08-29T06:02:27.918Z,1.60
2023-08-29T06:05:00.596Z,1.50
2023-08-29T06:07:33.437Z,2.00
2023-08-29T06:10:06.098Z,1.90
2023-08-29T06:12:38.494Z,2.10
2023-08-29T06:15:14.013Z,2.30
2023-08-29T06:17:46.463Z,1.60
2023-08-29T06:20:19.903Z,8.30
2023-08-29T06:22:52.508Z,8.40
2023-08-29T06:25:25.466Z,20.60
2023-08-29T06:27:57.594Z,7.80
2023-08-29T06:30:30.415Z,4.80
2023-08-29T06:33:02.644Z,4.90
2023-08-29T06:35:39.581Z,7.00
2023-08-29T06:38:12.348Z,5.30
2023-08-29T06:40:44.802Z,3.20
2023-08-29T06:43:16.878Z,2.20
2023-08-29T06:45:49.114Z,2.30
2023-08-29T06:48:21.628Z,3.20
2023-08-29T06:50:53.822Z,4.90
2023-08-29T06:53:28.073Z,3.50
2023-08-29T06:56:00.460Z,3.00
2023-08-29T06:58:32.922Z,2.30
2023-08-29T07:01:05.134Z,2.20
2023-08-29T07:03:37.782Z,2.10
2023-08-29T07:06:10.111Z,2.20
2023-08-29T07:08:42.218Z,2.00
2023-08-29T07:11:14.801Z,2.20
2023-08-29T07:13:47.043Z,1.70
2023-08-29T07:16:19.596Z,2.30
2023-08-29T07:18:52.223Z,2.20
2023-08-29T07:21:24.764Z,1.50
2023-08-29T07:23:56.976Z,2.20
2023-08-29T07:26:29.589Z,2.00
2023-08-29T07:29:01.824Z,1.60
2023-08-29T07:31:35.854Z,1.80
2023-08-29T07:34:09.931Z,2.00
2023-08-29T07:36:42.435Z,2.30
2023-08-29T07:39:16.119Z,3.30
2023-08-29T07:41:48.264Z,2.30
2023-08-29T07:44:21.609Z,2.10
2023-08-29T07:47:11.817Z,2.30
2023-08-29T07:49:44.803Z,6.30
2023-08-29T07:52:16.978Z,2.70
2023-08-29T07:54:49.205Z,2.30
2023-08-29T07:57:21.557Z,1.90
2023-08-29T07:59:53.981Z,2.00
2023-08-29T08:02:26.327Z,2.00
2023-08-29T08:04:58.798Z,2.00
2023-08-29T08:07:31.404Z,2.50
2023-08-29T08:10:05.897Z,3.40
2023-08-29T08:12:39.459Z,3.70
2023-08-29T08:15:14.782Z,2.30
2023-08-29T08:17:47.585Z,1.30
2023-08-29T08:20:20.528Z,2.10
2023-08-29T08:22:53.338Z,1.90
2023-08-29T08:25:25.578Z,2.60
2023-08-29T08:28:00.166Z,2.20
2023-08-29T08:30:32.655Z,1.90
2023-08-29T08:33:06.360Z,2.50
2023-08-29T08:35:41.530Z,2.00
2023-08-29T08:38:20.642Z,3.50
2023-08-29T08:40:56.910Z,5.20
2023-08-29T08:43:30.860Z,3.90
2023-08-29T08:46:04.312Z,2.60
2023-08-29T08:48:36.889Z,1.90
2023-08-29T08:51:11.438Z,1.80
2023-08-29T08:53:44.145Z,2.00
2023-08-29T08:56:16.608Z,1.70
2023-08-29T08:58:48.978Z,1.80
2023-08-29T09:01:21.394Z,4.30
2023-08-29T09:03:53.748Z,8.70
2023-08-29T09:06:26.018Z,4.80
2023-08-29T09:09:16.181Z,2.80
2023-08-29T09:11:54.877Z,2.50
2023-08-29T09:14:28.819Z,3.90
2023-08-29T09:17:01.752Z,3.60
2023-08-29T09:19:35.525Z,3.00
2023-08-29T09:22:07.962Z,3.00
2023-08-29T09:24:40.791Z,2.80
2023-08-29T09:27:13.416Z,3.30
2023-08-29T09:29:45.913Z,3.10
2023-08-29T09:32:18.791Z,2.90
2023-08-29T09:34:51.855Z,3.10
2023-08-29T09:37:24.720Z,3.30
2023-08-29T09:39:58.358Z,2.50
2023-08-29T09:42:31.757Z,6.20
2023-08-29T09:45:04.376Z,4.80
2023-08-29T09:47:37.327Z,3.90
2023-08-29T09:50:11.154Z,4.20
2023-08-29T09:52:44.091Z,4.00
2023-08-29T09:55:19.222Z,3.70
2023-08-29T09:57:55.169Z,4.00
2023-08-29T10:00:27.989Z,3.20
2023-08-29T10:03:01.148Z,3.40
2023-08-29T10:05:37.576Z,3.90
2023-08-29T10:08:19.421Z,3.70
2023-08-29T10:10:56.510Z,4.00
2023-08-29T10:13:30.162Z,4.30
2023-08-29T10:16:02.742Z,4.90
2023-08-29T10:18:36.400Z,4.20
2023-08-29T10:21:09.263Z,4.50
2023-08-29T10:23:42.596Z,4.80
2023-08-29T10:26:15.380Z,4.00
2023-08-29T10:28:49.112Z,3.70
2023-08-29T10:31:22.555Z,4.30
2023-08-29T10:33:56.783Z,4.70
2023-08-29T10:36:29.107Z,4.40
2023-08-29T10:39:01.346Z,4.90
2023-08-29T10:41:47.262Z,4.40
2023-08-29T10:44:38.082Z,5.60
2023-08-29T10:47:28.045Z,4.50
2023-08-29T10:50:06.279Z,4.00
2023-08-29T10:52:43.167Z,5.20
2023-08-29T10:55:24.916Z,6.70
2023-08-29T10:57:59.923Z,5.10
2023-08-29T11:00:58.163Z,4.30
2023-08-29T11:03:51.390Z,4.20
2023-08-29T11:06:25.482Z,4.60
2023-08-29T11:09:22.452Z,4.30
2023-08-29T11:12:12.141Z,9.50
2023-08-29T11:14:54.964Z,5.10
2023-08-29T11:17:28.164Z,4.50
2023-08-29T11:20:03.024Z,6.60
2023-08-29T11:22:35.237Z,6.20
2023-08-29T11:25:09.545Z,6.00
2023-08-29T11:30:28.415Z,9.40
2023-08-29T11:33:07.537Z,11.60
2023-08-29T11:35:40.129Z,10.30
2023-08-29T11:38:12.330Z,11.30
2023-08-29T11:40:57.040Z,7.70
2023-08-29T11:44:00.387Z,6.30
2023-08-29T11:46:36.540Z,5.70
2023-08-29T11:49:16.510Z,6.20
2023-08-29T11:51:48.601Z,7.30
2023-08-29T11:54:42.564Z,9.90
2023-08-29T11:57:16.844Z,7.80
2023-08-29T11:59:50.284Z,6.20
2023-08-29T12:02:23.561Z,6.00
2023-08-29T12:04:58.811Z,9.00
2023-08-29T12:07:35.820Z,7.50
2023-08-29T12:10:15.103Z,7.40
2023-08-29T12:12:47.291Z,7.90
2023-08-29T12:15:30.715Z,6.70
2023-08-29T12:18:21.082Z,7.60
2023-08-29T12:20:53.905Z,6.70
2023-08-29T12:23:30.095Z,6.70
2023-08-29T12:26:02.206Z,8.70
2023-08-29T12:28:34.658Z,6.90
2023-08-29T12:31:08.820Z,7.00
2023-08-29T12:33:41.100Z,6.70
2023-08-29T12:36:13.376Z,7.10
2023-08-29T12:38:45.561Z,8.10
2023-08-29T12:41:18.357Z,7.70
2023-08-29T12:43:50.603Z,6.80
2023-08-29T12:46:23.484Z,6.10
2023-08-29T12:48:56.462Z,7.00
2023-08-29T12:51:28.636Z,6.40
2023-08-29T12:54:01.170Z,6.40
2023-08-29T12:56:34.028Z,7.00
2023-08-29T12:59:06.600Z,7.20
2023-08-29T13:01:38.885Z,7.70
2023-08-29T13:04:11.268Z,7.30
2023-08-29T13:06:43.679Z,7.20
2023-08-29T13:09:30.791Z,7.40
2023-08-29T13:12:09.455Z,7.10
2023-08-29T13:14:41.874Z,7.40
2023-08-29T13:17:15.071Z,7.10
2023-08-29T13:19:47.527Z,7.70
2023-08-29T13:22:20.211Z,9.00
2023-08-29T13:24:53.132Z,10.30
2023-08-29T13:27:25.666Z,9.10
2023-08-29T13:29:58.251Z,10.30
2023-08-29T13:32:31.721Z,9.50
2023-08-29T13:35:05.327Z,8.10
2023-08-29T13:37:37.514Z,8.90
2023-08-29T13:40:12.290Z,7.50
2023-08-29T13:42:44.805Z,7.40
2023-08-29T13:45:17.062Z,8.00
2023-08-29T13:47:50.234Z,10.50
2023-08-29T13:50:22.628Z,8.70
2023-08-29T13:52:57.103Z,10.50
2023-08-29T13:55:29.405Z,9.90
2023-08-29T13:58:01.904Z,9.10
2023-08-29T14:00:35.660Z,8.60
2023-08-29T14:03:08.928Z,8.60
2023-08-29T14:05:42.143Z,8.50
2023-08-29T14:08:14.874Z,9.20
2023-08-29T14:10:47.040Z,8.70
2023-08-29T14:13:19.300Z,9.60
2023-08-29T14:15:58.279Z,10.30
2023-08-29T14:18:31.093Z,15.80
2023-08-29T14:21:03.747Z,12.80
2023-08-29T14:23:35.962Z,9.70
2023-08-29T14:26:12.076Z,13.40
2023-08-29T14:28:44.286Z,12.50
2023-08-29T14:31:16.781Z,10.60
2023-08-29T14:33:48.949Z,9.30
2023-08-29T14:36:21.308Z,9.30
2023-08-29T14:38:53.405Z,13.30
2023-08-29T14:41:25.613Z,19.40
2023-08-29T14:43:58.005Z,11.10
2023-08-29T14:46:30.471Z,11.00
2023-08-29T14:49:04.173Z,10.10
2023-08-29T14:51:36.970Z,10.30
2023-08-29T14:54:09.411Z,16.20
2023-08-29T14:56:42.866Z,15.40
2023-08-29T14:59:15.172Z,14.20
2023-08-29T15:01:48.279Z,9.70
2023-08-29T15:04:20.791Z,10.00
2023-08-29T15:06:53.355Z,10.30
2023-08-29T15:09:25.649Z,11.50
2023-08-29T15:11:58.239Z,10.10
2023-08-29T15:14:30.423Z,10.60
2023-08-29T15:17:02.952Z,9.60
2023-08-29T15:19:36.266Z,10.00
2023-08-29T15:22:08.899Z,8.50
2023-08-29T15:24:41.424Z,9.10
2023-08-29T15:27:13.946Z,9.70
2023-08-29T15:29:46.265Z,8.80
2023-08-29T15:32:18.797Z,8.40
2023-08-29T15:34:50.913Z,297.30
2023-08-29T15:37:23.669Z,241.00
2023-08-29T15:39:56.149Z,117.60
2023-08-29T15:42:31.910Z,34.10
2023-08-29T15:45:04.576Z,15.60
2023-08-29T15:47:36.894Z,11.10
2023-08-29T15:50:11.213Z,8.90
2023-08-29T15:55:14.698Z,10.40
2023-08-29T15:57:46.878Z,8.80
2023-08-29T16:00:21.133Z,10.40
2023-08-29T16:02:55.313Z,9.90
2023-08-29T16:05:29.731Z,9.20
2023-08-29T16:08:02.417Z,10.90
2023-08-29T16:10:34.517Z,10.70
2023-08-29T16:13:07.021Z,9.80
2023-08-29T16:15:39.171Z,13.80
2023-08-29T16:18:11.626Z,19.30
2023-08-29T16:20:44.526Z,60.70
2023-08-29T16:23:16.852Z,47.70
2023-08-29T16:25:50.407Z,19.60
2023-08-29T16:28:24.576Z,15.90
2023-08-29T16:30:56.930Z,13.40
2023-08-29T16:33:29.299Z,12.20
2023-08-29T16:36:02.059Z,18.00
2023-08-29T16:38:34.493Z,19.70
2023-08-29T16:41:06.779Z,14.40
2023-08-29T16:43:38.983Z,14.20
2023-08-29T16:46:14.443Z,24.50
2023-08-29T16:48:47.121Z,29.10
2023-08-29T16:51:19.651Z,29.10
2023-08-29T16:53:58.432Z,33.40
2023-08-29T16:56:38.612Z,57.60
2023-08-29T16:59:13.096Z,59.50
2023-08-29T17:01:46.969Z,35.50
2023-08-29T17:04:19.479Z,26.30
2023-08-29T17:06:56.273Z,18.30
2023-08-29T17:09:38.299Z,14.50
2023-08-29T17:12:26.582Z,12.00
2023-08-29T17:15:01.283Z,12.20
2023-08-29T17:17:34.324Z,12.80
2023-08-29T17:20:11.199Z,25.30
2023-08-29T17:22:45.924Z,33.90
2023-08-29T17:25:18.717Z,38.60
2023-08-29T17:27:51.033Z,20.20
2023-08-29T17:30:23.902Z,19.60
2023-08-29T17:32:56.206Z,20.50
2023-08-29T17:35:29.858Z,16.30
2023-08-29T17:38:02.262Z,14.00
2023-08-29T17:40:35.049Z,15.90
2023-08-29T17:43:11.638Z,13.70
2023-08-29T17:45:55.076Z,19.10
2023-08-29T17:48:28.198Z,16.10
2023-08-29T17:51:01.616Z,16.00
2023-08-29T17:53:36.963Z,14.40
2023-08-29T17:56:10.010Z,11.60
2023-08-29T17:58:43.008Z,11.30
2023-08-29T18:01:15.508Z,13.30
2023-08-29T18:03:47.996Z,13.50
2023-08-29T18:06:25.016Z,13.00
2023-08-29T18:08:58.115Z,16.20
2023-08-29T18:11:31.235Z,19.90
2023-08-29T18:14:05.113Z,17.70
2023-08-29T18:16:38.048Z,13.20
2023-08-29T18:19:11.346Z,26.80
2023-08-29T18:21:44.274Z,20.30
2023-08-29T18:24:17.081Z,13.30
2023-08-29T18:26:49.751Z,23.40
2023-08-29T18:29:22.180Z,24.40
2023-08-29T18:31:55.351Z,32.00
2023-08-29T18:34:28.504Z,22.50
2023-08-29T18:37:01.020Z,19.80
2023-08-29T18:39:33.500Z,25.30
2023-08-29T18:42:06.159Z,23.20
2023-08-29T18:44:38.976Z,20.90
2023-08-29T18:47:11.711Z,33.40
2023-08-29T18:49:44.352Z,19.90
2023-08-29T18:52:17.422Z,15.20
2023-08-29T18:54:49.963Z,14.90
2023-08-29T18:57:23.489Z,14.70
2023-08-29T18:59:56.377Z,16.60
2023-08-29T19:02:29.182Z,14.50
2023-08-29T19:05:04.928Z,16.20
2023-08-29T19:07:38.046Z,14.60
2023-08-29T19:10:12.609Z,15.40
2023-08-29T19:12:46.304Z,14.90
2023-08-29T19:15:19.033Z,13.70
2023-08-29T19:17:51.811Z,13.00
2023-08-29T19:20:24.236Z,14.00
2023-08-29T19:22:57.046Z,13.50
2023-08-29T19:25:29.787Z,13.00
2023-08-29T19:28:02.617Z,13.70
2023-08-29T19:30:36.286Z,15.00
2023-08-29T19:33:12.416Z,15.50
2023-08-29T19:35:45.527Z,13.30
2023-08-29T19:38:18.278Z,13.70
2023-08-29T19:40:50.789Z,13.10
2023-08-29T19:43:23.166Z,13.40
2023-08-29T19:45:55.969Z,15.50
2023-08-29T19:48:28.508Z,35.40
2023-08-29T19:51:01.497Z,26.90
2023-08-29T19:53:36.639Z,18.00
2023-08-29T19:56:15.717Z,15.00
2023-08-29T19:58:48.207Z,14.70
2023-08-29T20:01:21.051Z,13.80
2023-08-29T20:03:54.351Z,37.00
2023-08-29T20:06:27.071Z,72.10
2023-08-29T20:08:59.556Z,31.00
2023-08-29T20:11:32.706Z,16.50
2023-08-29T20:14:05.320Z,16.90
2023-08-29T20:16:37.832Z,15.80
2023-08-29T20:19:10.695Z,14.60
2023-08-29T20:21:43.207Z,14.60
2023-08-29T20:24:15.987Z,15.60
2023-08-29T20:26:49.276Z,16.80
2023-08-29T20:29:22.330Z,15.00
2023-08-29T20:31:54.700Z,18.40
2023-08-29T20:34:27.106Z,96.40
2023-08-29T20:36:59.437Z,228.20
2023-08-29T20:39:33.256Z,106.90
2023-08-29T20:42:06.190Z,40.70
2023-08-29T20:44:38.508Z,15.60
2023-08-29T20:47:12.150Z,15.20
2023-08-29T20:49:44.847Z,14.90
2023-08-29T20:52:17.642Z,15.00
2023-08-29T20:54:51.406Z,46.30
2023-08-29T20:57:24.041Z,16.90
2023-08-29T20:59:56.790Z,17.20
2023-08-29T21:02:29.539Z,14.90
2023-08-29T21:05:02.010Z,15.10
2023-08-29T21:07:34.475Z,13.30
2023-08-29T21:10:08.534Z,14.20
2023-08-29T21:12:41.284Z,14.50
2023-08-29T21:15:14.146Z,14.60
2023-08-29T21:17:46.761Z,24.00
2023-08-29T21:20:20.828Z,15.20
2023-08-29T21:22:53.733Z,15.90
2023-08-29T21:25:26.285Z,14.30
2023-08-29T21:27:59.043Z,12.20
2023-08-29T21:30:31.456Z,13.60
2023-08-29T21:33:04.519Z,12.10
2023-08-29T21:35:38.232Z,13.20
2023-08-29T21:38:11.514Z,12.70
2023-08-29T21:40:46.786Z,13.90
2023-08-29T21:43:22.872Z,27.10
2023-08-29T21:46:00.304Z,73.30
2023-08-29T21:48:32.758Z,39.20
2023-08-29T21:51:05.758Z,45.30
2023-08-29T21:53:38.167Z,24.50
2023-08-29T21:56:13.226Z,29.30
2023-08-29T21:58:46.000Z,16.90
2023-08-29T22:01:18.456Z,29.40
2023-08-29T22:03:51.155Z,23.60
2023-08-29T22:06:23.926Z,24.80
2023-08-29T22:08:56.394Z,17.30
2023-08-29T22:11:29.188Z,12.80
2023-08-29T22:14:01.627Z,13.40
2023-08-29T22:16:34.064Z,12.60
2023-08-29T22:19:06.949Z,13.30
2023-08-29T22:21:39.386Z,12.60
2023-08-29T22:24:13.208Z,14.40
2023-08-29T22:26:46.508Z,13.80
2023-08-29T22:29:19.775Z,13.90
2023-08-29T22:31:52.149Z,14.40
2023-08-29T22:34:24.478Z,17.30
2023-08-29T22:36:57.246Z,18.20
2023-08-29T22:39:31.574Z,17.20
2023-08-29T22:42:04.037Z,15.20
2023-08-29T22:44:36.882Z,14.00
2023-08-29T22:47:09.462Z,14.10
2023-08-29T22:49:41.985Z,14.40
2023-08-29T22:52:14.557Z,13.90
2023-08-29T22:54:47.065Z,13.50
2023-08-29T22:57:20.243Z,14.20
2023-08-29T22:59:52.770Z,14.80
2023-08-29T23:02:25.368Z,14.80
2023-08-29T23:04:57.827Z,14.30
2023-08-29T23:07:30.250Z,14.70
2023-08-29T23:10:02.687Z,15.80
2023-08-29T23:12:35.153Z,15.40
2023-08-29T23:15:09.120Z,16.20
2023-08-29T23:17:42.492Z,16.60
2023-08-29T23:20:15.634Z,15.30
2023-08-29T23:22:50.607Z,15.90
2023-08-29T23:25:24.998Z,16.20
2023-08-29T23:27:57.743Z,16.40
2023-08-29T23:30:30.355Z,16.40
2023-08-29T23:33:03.153Z,18.20
2023-08-29T23:35:35.918Z,18.40
2023-08-29T23:38:08.645Z,17.60
2023-08-29T23:40:41.620Z,17.00
2023-08-29T23:43:14.507Z,16.90
2023-08-29T23:45:47.706Z,16.30
2023-08-29T23:48:20.396Z,18.90
2023-08-29T23:50:53.064Z,17.90
2023-08-29T23:53:25.711Z,17.50
2023-08-29T23:55:58.460Z,19.00
2023-08-29T23:58:31.173Z,25.50
